Time;durP1;ratioP1;P1;durP2;ratioP2;P2;SDS_P1;SDS_P2;PMS_P1;PMS_P2;Temp;Humidity;BMP_temperature;BMP_pressure;BME280_temperature;BME280_humidity;BME280_pressure;Samples;Min_cycle;Max_cycle;Signal;HPM_P1;HPM_P2
2021/01/25 00:04:06;;;;;;;22.75;20.60;;;;;;;0.82;74.24;98412.13;10142208;29;20048;-68
2021/01/25 00:09:07;;;;;;;24.58;21.98;;;;;;;0.83;74.25;98414.66;10141772;29;20057;-67
2021/01/25 00:14:09;;;;;;;22.48;20.27;;;;;;;0.81;73.80;98415.59;10141711;29;20487;-67
2021/01/25 00:19:10;;;;;;;21.65;19.55;;;;;;;0.84;73.82;98411.22;10140022;29;20100;-67
2021/01/25 00:24:12;;;;;;;21.30;19.42;;;;;;;0.71;74.13;98417.50;10141018;29;20068;-66
2021/01/25 00:29:14;;;;;;;18.15;16.65;;;;;;;0.77;73.40;98407.03;10140380;29;20049;-66
2021/01/25 00:34:15;;;;;;;22.20;20.00;;;;;;;0.82;73.38;98418.13;10140235;29;20513;-67
2021/01/25 00:39:16;;;;;;;21.73;19.63;;;;;;;0.71;73.92;98417.50;10140506;29;20041;-67
2021/01/25 00:44:18;;;;;;;21.58;19.58;;;;;;;0.94;73.00;98410.16;10140041;29;20116;-66
2021/01/25 00:49:19;;;;;;;22.88;20.77;;;;;;;0.79;73.53;98410.44;10140884;29;20483;-66
2021/01/25 00:54:20;;;;;;;22.85;20.60;;;;;;;0.84;73.04;98418.09;10138554;29;20096;-67
2021/01/25 00:59:21;;;;;;;23.05;20.73;;;;;;;0.76;73.30;98428.59;10139498;29;20525;-66
2021/01/25 01:04:23;;;;;;;20.35;18.48;;;;;;;0.82;73.46;98433.66;10139295;29;20048;-67
2021/01/25 01:09:24;;;;;;;19.33;17.73;;;;;;;0.74;73.91;98435.53;10140089;29;20088;-67
2021/01/25 01:14:25;;;;;;;20.70;18.88;;;;;;;0.88;73.08;98432.69;10139102;29;20514;-67
2021/01/25 01:19:26;;;;;;;20.27;18.38;;;;;;;0.86;73.18;98435.31;10139073;29;20048;-66
2021/01/25 01:24:28;;;;;;;20.95;19.08;;;;;;;0.84;73.52;98447.44;10138380;29;20080;-66
2021/01/25 01:29:29;;;;;;;21.92;19.80;;;;;;;0.91;73.39;98448.16;10138508;29;20068;-67
2021/01/25 01:34:30;;;;;;;22.77;20.67;;;;;;;0.93;73.14;98452.44;10139332;29;20132;-66
2021/01/25 01:39:31;;;;;;;22.52;20.48;;;;;;;0.71;73.73;98451.13;10137725;29;20077;-67
2021/01/25 01:44:32;;;;;;;21.67;19.73;;;;;;;0.98;73.42;98444.59;10138641;29;20131;-67
2021/01/25 01:49:34;;;;;;;23.05;20.88;;;;;;;0.88;73.44;98454.22;10137685;29;20485;-66
2021/01/25 01:54:35;;;;;;;24.33;21.92;;;;;;;0.95;73.57;98449.81;10137522;29;20092;-67
2021/01/25 01:59:37;;;;;;;23.85;21.63;;;;;;;0.99;73.36;98456.63;10135926;29;20127;-67
2021/01/25 02:04:38;;;;;;;25.98;23.25;;;;;;;0.94;74.14;98450.69;10137301;29;20148;-66
2021/01/25 02:09:45;;;;;;;24.35;21.83;;;;;;;0.83;74.54;98458.63;10137177;29;20075;-67
2021/01/25 02:14:47;;;;;;;26.20;23.52;;;;;;;0.85;74.62;98458.63;10137292;29;20049;-66
2021/01/25 02:19:59;;;;;;;31.02;24.90;;;;;;;0.83;74.73;98466.41;10136749;29;20444;-66
2021/01/25 02:25:14;;;;;;;27.98;24.88;;;;;;;0.86;74.36;98468.94;10136583;29;20499;-66
2021/01/25 02:30:16;;;;;;;33.90;28.52;;;;;;;0.72;74.87;98468.34;10136975;29;20068;-66
2021/01/25 02:35:19;;;;;;;37.40;26.73;;;;;;;0.75;74.65;98465.69;10135942;29;20045;-66
2021/01/25 02:40:22;;;;;;;38.40;27.58;;;;;;;0.92;74.10;98463.66;10136608;29;20414;-66
2021/01/25 02:45:24;;;;;;;38.88;29.17;;;;;;;0.88;74.42;98463.72;10136724;29;20171;-66
2021/01/25 02:50:25;;;;;;;36.45;27.67;;;;;;;0.87;74.10;98460.28;10135968;29;20052;-67
2021/01/25 02:55:26;;;;;;;30.65;24.67;;;;;;;0.95;73.48;98457.56;10135853;29;20123;-67
2021/01/25 03:00:28;;;;;;;29.08;23.20;;;;;;;0.95;73.52;98458.44;10135944;29;20109;-66
2021/01/25 03:05:29;;;;;;;23.38;21.00;;;;;;;0.88;73.16;98458.56;10142459;29;20041;-66
2021/01/25 03:10:31;;;;;;;21.88;19.50;;;;;;;0.66;73.72;98456.34;10143164;29;20076;-66
2021/01/25 03:15:34;;;;;;;22.10;19.15;;;;;;;0.81;73.09;98457.81;10143552;29;20483;-67
2021/01/25 03:20:35;;;;;;;18.25;16.38;;;;;;;0.92;72.19;98450.72;10143020;29;20075;-67
2021/01/25 03:25:36;;;;;;;16.52;14.82;;;;;;;0.79;72.36;98456.13;10143662;29;20079;-66
2021/01/25 03:30:37;;;;;;;17.45;15.55;;;;;;;0.71;72.37;98458.88;10142756;29;20083;-66
2021/01/25 03:35:48;;;;;;;15.63;14.27;;;;;;;0.78;71.75;98464.78;10144449;29;20048;-66
2021/01/25 03:40:49;;;;;;;17.00;14.77;;;;;;;0.68;72.12;98469.25;10119680;29;20495;-67
2021/01/25 03:45:52;;;;;;;14.00;12.60;;;;;;;0.69;71.59;98473.56;10107530;29;20048;-67
2021/01/25 03:50:53;;;;;;;14.40;13.13;;;;;;;0.65;71.73;98466.72;10107726;29;20489;-66
2021/01/25 03:55:54;;;;;;;15.60;13.18;;;;;;;0.56;71.66;98472.06;10105161;29;20057;-67
2021/01/25 04:00:55;;;;;;;15.50;14.13;;;;;;;0.58;71.31;98471.16;10107939;29;20049;-66
2021/01/25 04:05:56;;;;;;;18.02;12.80;;;;;;;0.48;71.89;98482.50;10106608;29;20041;-67
2021/01/25 04:10:58;;;;;;;15.02;13.68;;;;;;;0.58;71.69;98481.50;10106339;29;20064;-67
2021/01/25 04:15:59;;;;;;;14.75;13.48;;;;;;;0.52;71.38;98485.91;10106626;29;20043;-67
2021/01/25 04:21:01;;;;;;;16.75;15.25;;;;;;;0.06;73.20;98481.44;10103537;29;20059;-65
2021/01/25 04:26:02;;;;;;;14.38;13.18;;;;;;;0.07;73.77;98477.97;10103449;29;20048;-65
2021/01/25 04:31:03;;;;;;;17.63;14.63;;;;;;;0.00;74.24;98472.06;10103337;29;20061;-67
2021/01/25 04:36:05;;;;;;;15.43;13.82;;;;;;;0.37;72.66;98477.53;10101359;29;20041;-67
2021/01/25 04:41:07;;;;;;;15.95;14.23;;;;;;;0.34;72.44;98484.47;10102410;29;20076;-66
2021/01/25 04:46:08;;;;;;;16.83;15.18;;;;;;;0.05;73.35;98492.66;10103013;29;20456;-66
2021/01/25 04:51:09;;;;;;;16.05;14.45;;;;;;;0.07;73.57;98503.81;10102673;29;20125;-67
2021/01/25 04:56:12;;;;;;;15.57;13.98;;;;;;;0.08;73.63;98508.09;10102986;29;20086;-66
2021/01/25 05:01:13;;;;;;;15.38;13.77;;;;;;;0.37;71.84;98508.53;10102504;29;20420;-66
2021/01/25 05:06:15;;;;;;;16.02;14.45;;;;;;;0.41;71.76;98517.97;10101647;29;20056;-65
2021/01/25 05:11:17;;;;;;;15.10;13.50;;;;;;;0.49;71.54;98510.94;10101919;29;20053;-65
2021/01/25 05:16:22;;;;;;;14.38;12.98;;;;;;;0.51;71.01;98513.50;10101976;29;20041;-66
2021/01/25 05:21:44;;;;;;;17.48;14.93;;;;;;;0.43;71.40;98515.34;10102314;29;20088;-66
2021/01/25 05:26:53;;;;;;;17.10;15.43;;;;;;;0.18;72.05;98509.69;10099094;29;20052;-65
2021/01/25 05:31:56;;;;;;;17.80;14.55;;;;;;;0.18;72.19;98517.44;10103948;29;20056;-66
2021/01/25 05:37:00;;;;;;;26.02;14.27;;;;;;;0.36;71.65;98517.19;10101015;29;20053;-67
2021/01/25 05:42:01;;;;;;;16.50;14.85;;;;;;;0.24;71.78;98513.03;10100222;29;20111;-67
2021/01/25 05:47:07;;;;;;;18.23;16.38;;;;;;;-0.06;72.66;98524.66;10100526;29;20044;-65
2021/01/25 05:52:15;;;;;;;17.38;15.65;;;;;;;-0.08;72.93;98520.38;10100792;29;20183;-66
2021/01/25 05:57:16;;;;;;;18.50;16.70;;;;;;;-0.16;73.04;98520.47;10101747;29;20069;-67
2021/01/25 06:02:18;;;;;;;18.85;16.27;;;;;;;0.04;72.70;98527.09;10100607;29;20057;-67
2021/01/25 06:07:20;;;;;;;17.15;14.98;;;;;;;-0.08;72.63;98530.72;10102842;29;20100;-67
2021/01/25 06:12:43;;;;;;;17.33;15.68;;;;;;;-0.09;73.03;98539.31;10101408;29;20060;-66
2021/01/25 06:17:46;;;;;;;23.35;16.27;;;;;;;0.19;71.92;98542.41;10099134;29;20052;-66
2021/01/25 06:22:47;;;;;;;16.60;15.10;;;;;;;0.15;72.29;98551.06;10099566;29;20464;-66
2021/01/25 06:27:53;;;;;;;18.60;16.52;;;;;;;0.30;71.33;98558.59;10098371;29;20040;-65
2021/01/25 06:32:54;;;;;;;17.58;15.88;;;;;;;0.33;71.07;98568.91;10098685;29;20081;-67
2021/01/25 06:37:57;;;;;;;18.38;16.45;;;;;;;0.24;71.46;98574.19;10098975;29;20038;-66
2021/01/25 06:43:05;;;;;;;19.48;16.48;;;;;;;0.21;71.90;98579.41;10098656;29;20081;-65
2021/01/25 06:48:07;;;;;;;18.17;16.25;;;;;;;0.30;71.35;98592.19;10098062;29;20488;-65
2021/01/25 06:53:09;;;;;;;20.48;15.65;;;;;;;0.34;70.90;98599.03;10097810;29;20045;-67
2021/01/25 06:58:11;;;;;;;19.48;16.98;;;;;;;0.13;71.63;98609.66;10098509;29;20072;-65
2021/01/25 07:03:19;;;;;;;16.52;14.93;;;;;;;0.34;70.94;98617.13;10098798;29;20053;-66
2021/01/25 07:08:26;;;;;;;18.20;16.40;;;;;;;0.27;71.41;98618.09;10098768;29;20101;-65
2021/01/25 07:13:35;;;;;;;16.88;15.18;;;;;;;0.17;71.35;98614.75;10099986;29;20049;-66
2021/01/25 07:18:36;;;;;;;18.20;16.33;;;;;;;0.06;72.38;98624.41;10100350;29;20415;-67
2021/01/25 07:23:41;;;;;;;16.52;14.88;;;;;;;0.25;71.17;98628.44;10100056;29;20083;-65
2021/01/25 07:28:44;;;;;;;16.73;15.23;;;;;;;0.59;69.77;98627.16;10101463;29;20436;-65
2021/01/25 07:33:45;;;;;;;17.33;15.50;;;;;;;0.55;69.73;98634.09;10099527;29;20041;-67
2021/01/25 07:38:46;;;;;;;18.05;16.27;;;;;;;0.38;70.72;98639.47;10099513;29;20049;-66
2021/01/25 07:43:49;;;;;;;17.98;15.85;;;;;;;0.71;69.29;98648.53;10099594;29;20045;-66
2021/01/25 07:48:51;;;;;;;15.95;14.52;;;;;;;0.48;70.57;98648.81;10101151;29;20097;-66
2021/01/25 07:53:54;;;;;;;17.40;15.60;;;;;;;0.31;71.45;98650.78;10104962;29;20049;-65
2021/01/25 07:59:07;;;;;;;20.33;16.85;;;;;;;0.50;71.01;98661.75;10105556;29;20045;-67
2021/01/25 08:04:12;;;;;;;18.20;16.50;;;;;;;0.69;70.52;98660.59;10105610;29;20449;-67
2021/01/25 08:09:18;;;;;;;21.05;17.13;;;;;;;0.78;70.14;98661.34;10103676;29;20045;-66
2021/01/25 08:14:32;;;;;;;20.17;18.20;;;;;;;0.90;69.70;98659.44;10103739;29;20053;-67
2021/01/25 08:19:46;;;;;;;19.15;16.98;;;;;;;0.91;70.03;98666.31;10103894;29;20104;-66
2021/01/25 08:24:57;;;;;;;16.17;14.40;;;;;;;0.87;69.74;98676.75;10103320;29;20081;-67
2021/01/25 08:30:06;;;;;;;16.30;14.85;;;;;;;0.80;69.30;98678.56;10103424;29;20049;-66
2021/01/25 08:35:08;;;;;;;16.10;14.70;;;;;;;1.00;69.12;98681.72;10103691;29;20049;-66
2021/01/25 08:40:20;;;;;;;15.98;14.35;;;;;;;1.10;68.66;98677.25;10102677;29;20045;-66
2021/01/25 08:45:23;;;;;;;13.82;12.63;;;;;;;1.30;67.62;98681.28;10102877;29;20506;-66
2021/01/25 08:50:27;;;;;;;14.55;13.23;;;;;;;1.18;67.68;98684.91;10102733;29;20082;-66
2021/01/25 08:55:37;;;;;;;12.80;11.70;;;;;;;1.25;67.55;98694.28;10102747;29;20049;-65
2021/01/25 09:00:41;;;;;;;13.77;12.68;;;;;;;1.12;68.12;98700.53;10099960;29;20044;-67
2021/01/25 09:05:43;;;;;;;19.05;12.90;;;;;;;1.31;67.23;98699.34;10101523;29;20109;-66
2021/01/25 09:10:44;;;;;;;13.73;12.55;;;;;;;1.27;68.19;98702.88;10102168;29;20049;-66
2021/01/25 09:15:45;;;;;;;13.38;12.07;;;;;;;1.49;67.26;98708.56;10101124;29;20120;-67
2021/01/25 09:20:47;;;;;;;14.77;13.25;;;;;;;1.25;68.56;98720.19;10100790;29;20052;-66
2021/01/25 09:25:48;;;;;;;13.70;12.50;;;;;;;1.50;67.19;98718.03;10100910;29;20045;-67
2021/01/25 09:30:49;;;;;;;13.20;11.98;;;;;;;1.50;67.20;98720.63;10100666;29;20045;-66
2021/01/25 09:35:50;;;;;;;12.80;11.70;;;;;;;1.23;67.68;98727.94;10100609;29;20048;-66
2021/01/25 09:40:52;;;;;;;13.07;11.98;;;;;;;1.18;68.49;98719.41;10098762;29;20048;-68
2021/01/25 09:45:53;;;;;;;12.15;11.05;;;;;;;1.24;68.25;98724.50;10099298;29;20405;-68
2021/01/25 09:50:54;;;;;;;12.13;11.15;;;;;;;1.57;67.42;98719.66;10099827;29;20412;-68
2021/01/25 09:55:57;;;;;;;14.95;13.32;;;;;;;1.37;67.09;98717.38;10099901;29;20100;-69
2021/01/25 10:00:58;;;;;;;11.90;10.88;;;;;;;1.67;66.31;98723.78;10101013;29;20172;-69
2021/01/25 10:05:59;;;;;;;13.60;12.38;;;;;;;1.39;67.22;98714.78;10099714;29;20548;-69
2021/01/25 10:11:29;;;;;;;14.85;13.55;;;;;;;1.25;67.30;98720.19;10098508;29;20079;-69
2021/01/25 10:16:30;;;;;;;13.55;12.35;;;;;;;1.69;65.75;98727.22;10099024;29;20041;-69
2021/01/25 10:21:32;;;;;;;14.10;12.85;;;;;;;1.55;66.45;98742.16;10097838;29;20122;-69
2021/01/25 10:26:33;;;;;;;14.40;12.98;;;;;;;1.59;65.89;98741.19;10099982;29;20049;-68
2021/01/25 10:31:35;;;;;;;13.73;12.18;;;;;;;1.60;66.43;98755.03;10097557;29;20045;-69
2021/01/25 10:36:36;;;;;;;10.63;9.63;;;;;;;1.88;64.32;98756.25;10098361;29;20049;-69
2021/01/25 10:41:37;;;;;;;10.90;10.00;;;;;;;2.16;63.86;98761.78;10097957;29;20045;-69
2021/01/25 10:46:38;;;;;;;11.02;10.02;;;;;;;2.25;63.29;98763.38;10098094;29;20062;-68
2021/01/25 10:51:39;;;;;;;12.75;11.65;;;;;;;1.98;63.25;98768.16;10098452;29;20055;-69
2021/01/25 10:56:41;;;;;;;12.07;10.98;;;;;;;2.02;62.47;98764.63;10097436;29;20149;-69
2021/01/25 11:01:42;;;;;;;12.73;11.55;;;;;;;1.67;64.02;98767.81;10098936;29;20080;-68
2021/01/25 11:06:47;;;;;;;12.90;11.70;;;;;;;1.71;64.28;98758.28;10098358;29;20101;-69
2021/01/25 11:11:50;;;;;;;14.60;13.20;;;;;;;2.01;64.17;98772.44;10097568;29;20068;-69
2021/01/25 11:16:51;;;;;;;13.55;12.35;;;;;;;3.13;59.92;98763.31;10098647;29;20052;-70
2021/01/25 11:21:54;;;;;;;11.63;10.52;;;;;;;3.35;59.53;98768.03;10098321;29;20060;-69
2021/01/25 11:27:00;;;;;;;12.23;11.02;;;;;;;3.53;58.95;98777.97;10104329;29;20491;-69
2021/01/25 11:32:03;;;;;;;11.25;10.38;;;;;;;5.04;54.98;98760.09;10104942;29;20076;-69
2021/01/25 11:37:05;;;;;;;10.85;9.95;;;;;;;6.39;51.09;98763.59;10106166;29;20041;-70
2021/01/25 11:42:06;;;;;;;9.18;8.38;;;;;;;5.39;53.43;98760.78;10106700;29;20048;-71
2021/01/25 11:47:08;;;;;;;9.88;9.07;;;;;;;4.84;54.21;98770.25;10104701;29;20037;-70
2021/01/25 11:52:09;;;;;;;9.98;9.18;;;;;;;3.86;56.24;98773.75;10104256;29;20407;-71
2021/01/25 11:57:10;;;;;;;10.45;9.45;;;;;;;3.65;58.08;98784.66;10105365;29;20052;-71
2021/01/25 12:02:12;;;;;;;11.23;10.27;;;;;;;4.10;58.04;98776.59;10106083;29;20052;-71
2021/01/25 12:07:14;;;;;;;11.10;10.20;;;;;;;4.23;57.32;98781.44;10104390;29;20076;-70
2021/01/25 12:12:15;;;;;;;9.15;8.35;;;;;;;4.47;55.98;98774.75;10103885;29;20061;-69
2021/01/25 12:17:16;;;;;;;10.40;9.60;;;;;;;3.77;58.18;98777.41;10102919;29;20134;-70
2021/01/25 12:22:17;;;;;;;10.60;9.60;;;;;;;3.72;58.82;98781.03;10102820;29;20052;-69
2021/01/25 12:27:19;;;;;;;11.20;10.30;;;;;;;3.69;58.84;98773.28;10102758;29;20041;-70
2021/01/25 12:32:20;;;;;;;11.13;10.23;;;;;;;4.83;55.97;98772.00;10102189;29;20053;-69
2021/01/25 12:37:21;;;;;;;11.25;10.25;;;;;;;5.44;53.62;98772.75;10101954;29;20132;-69
2021/01/25 12:42:22;;;;;;;10.40;9.50;;;;;;;3.94;55.98;98784.81;10101711;29;20516;-70
2021/01/25 12:47:24;;;;;;;12.20;11.15;;;;;;;2.81;60.22;98795.16;10102218;29;20072;-69
2021/01/25 12:52:30;;;;;;;11.90;10.88;;;;;;;2.35;60.74;98798.63;10102139;29;20124;-69
2021/01/25 12:57:32;;;;;;;11.35;10.30;;;;;;;2.18;60.79;98795.50;10101629;29;20049;-69
2021/01/25 13:02:33;;;;;;;11.40;10.10;;;;;;;2.20;62.66;98791.97;10102246;29;20056;-69
2021/01/25 13:07:35;;;;;;;9.95;9.05;;;;;;;2.44;59.49;98800.22;10100967;29;20045;-69
2021/01/25 13:12:39;;;;;;;9.70;8.88;;;;;;;2.08;60.18;98804.28;10101609;29;20380;-69
2021/01/25 13:17:41;;;;;;;9.65;8.75;;;;;;;2.27;59.74;98808.28;10100995;29;20041;-70
2021/01/25 13:22:46;;;;;;;9.23;8.43;;;;;;;2.17;60.32;98811.91;10101561;29;20108;-69
2021/01/25 13:27:47;;;;;;;10.48;8.57;;;;;;;2.28;59.82;98812.59;10098755;29;20556;-68
2021/01/25 13:32:49;;;;;;;9.60;8.70;;;;;;;2.19;60.23;98826.56;10100744;29;20049;-68
2021/01/25 13:37:52;;;;;;;9.98;8.75;;;;;;;2.21;60.01;98816.16;10099778;29;20514;-68
2021/01/25 13:42:53;;;;;;;10.88;9.98;;;;;;;2.00;60.85;98825.19;10100611;29;20480;-67
2021/01/25 13:47:54;;;;;;;10.02;9.13;;;;;;;1.67;62.64;98842.94;10099343;29;20417;-67
2021/01/25 13:52:56;;;;;;;11.32;10.27;;;;;;;1.91;62.12;98846.91;10099280;29;20519;-68
2021/01/25 13:57:58;;;;;;;10.93;10.02;;;;;;;1.95;61.26;98846.00;10099430;29;20476;-68
2021/01/25 14:02:59;;;;;;;11.90;10.68;;;;;;;2.10;60.82;98842.28;10099433;29;20049;-68
2021/01/25 14:08:01;;;;;;;10.43;9.52;;;;;;;2.00;61.33;98849.34;10098085;29;20504;-68
2021/01/25 14:13:02;;;;;;;11.10;9.93;;;;;;;2.10;60.84;98855.25;10098869;29;20048;-68
2021/01/25 14:18:04;;;;;;;10.57;9.70;;;;;;;2.05;60.47;98861.38;10112825;29;20045;-68
2021/01/25 14:23:08;;;;;;;10.75;9.75;;;;;;;1.93;61.96;98865.88;10098953;29;20049;-69
2021/01/25 14:28:09;;;;;;;10.88;9.85;;;;;;;2.04;61.57;98870.91;10098030;29;20041;-67
2021/01/25 14:33:11;;;;;;;12.45;10.98;;;;;;;2.03;61.39;98876.94;10098687;29;20045;-69
2021/01/25 14:38:14;;;;;;;11.10;10.10;;;;;;;1.89;61.40;98879.75;10098192;29;20052;-69
2021/01/25 14:43:16;;;;;;;12.23;9.85;;;;;;;1.74;62.49;98882.59;10099635;29;20105;-69
2021/01/25 14:48:17;;;;;;;12.23;11.13;;;;;;;1.52;63.35;98888.06;10098225;29;20041;-68
2021/01/25 14:53:19;;;;;;;11.18;10.18;;;;;;;1.59;63.16;98891.41;10113646;29;20053;-69
2021/01/25 14:58:20;;;;;;;12.43;11.25;;;;;;;1.57;62.55;98898.34;10101707;29;20056;-69
2021/01/25 15:03:21;;;;;;;12.30;11.10;;;;;;;1.38;63.19;98902.94;10102846;29;20571;-68
2021/01/25 15:08:23;;;;;;;14.57;13.07;;;;;;;1.37;63.42;98906.38;10105982;29;20055;-68
2021/01/25 15:13:24;;;;;;;15.45;12.73;;;;;;;1.06;64.95;98911.06;10105118;29;20052;-69
2021/01/25 15:18:26;;;;;;;13.27;12.10;;;;;;;1.15;64.15;98929.13;10105273;29;20457;-68
2021/01/25 15:23:27;;;;;;;14.50;13.27;;;;;;;1.11;63.94;98936.94;10104590;29;20053;-68
2021/01/25 15:28:29;;;;;;;13.85;12.60;;;;;;;0.78;65.89;98944.16;10104501;29;20415;-67
2021/01/25 15:33:30;;;;;;;14.50;13.23;;;;;;;0.84;65.91;98956.16;10105178;29;20056;-68
2021/01/25 15:38:32;;;;;;;16.40;14.80;;;;;;;0.67;66.99;98966.69;10104116;29;20114;-68
2021/01/25 15:43:33;;;;;;;16.42;14.82;;;;;;;0.67;66.53;98974.44;10145110;23;20112;-64
2021/01/25 15:48:34;;;;;;;15.93;14.48;;;;;;;0.46;67.31;98986.69;10139858;29;20043;-64
2021/01/25 15:53:35;;;;;;;15.85;14.25;;;;;;;0.52;66.71;98992.66;10141870;29;20056;-63
2021/01/25 15:58:37;;;;;;;15.13;13.68;;;;;;;0.19;67.50;99005.84;10140397;29;20537;-63
2021/01/25 16:03:38;;;;;;;16.80;15.25;;;;;;;0.31;67.39;99001.44;10139474;29;20175;-65
2021/01/25 16:08:41;;;;;;;16.65;15.02;;;;;;;0.17;67.59;99009.28;10139502;29;20052;-61
2021/01/25 16:13:42;;;;;;;15.88;12.68;;;;;;;0.47;65.21;99015.97;10140435;29;20108;-63
2021/01/25 16:18:43;;;;;;;12.50;11.20;;;;;;;0.28;65.73;99009.22;10140861;29;20041;-63
2021/01/25 16:23:45;;;;;;;12.05;10.95;;;;;;;0.52;64.24;99010.75;10140888;29;20036;-65
2021/01/25 16:28:46;;;;;;;15.10;13.63;;;;;;;0.35;64.46;99026.38;10141236;29;20096;-64
2021/01/25 16:33:47;;;;;;;11.85;10.68;;;;;;;0.42;63.31;99034.09;10138490;29;20087;-63
2021/01/25 16:38:48;;;;;;;17.60;16.05;;;;;;;0.04;64.98;99034.31;10141038;29;20048;-64
2021/01/25 16:43:50;;;;;;;13.43;12.23;;;;;;;-0.31;65.90;99044.81;10139607;29;20073;-63
2021/01/25 16:48:51;;;;;;;16.83;15.23;;;;;;;-0.31;65.81;99037.97;10139488;29;20051;-64
2021/01/25 16:53:52;;;;;;;14.75;13.45;;;;;;;-0.27;66.01;99054.28;10139714;29;20045;-64
2021/01/25 16:58:53;;;;;;;12.63;10.10;;;;;;;-0.07;64.54;99062.81;10136438;29;20563;-63
2021/01/25 17:03:56;;;;;;;10.98;9.95;;;;;;;-0.13;64.54;99068.03;10137297;29;20052;-63
2021/01/25 17:08:57;;;;;;;13.25;11.95;;;;;;;-0.18;64.64;99074.91;10139483;29;20100;-63
2021/01/25 17:13:58;;;;;;;15.25;12.75;;;;;;;-0.32;65.43;99080.13;10139249;29;20083;-64
2021/01/25 17:19:00;;;;;;;13.90;12.50;;;;;;;-0.32;64.88;99085.28;10140424;29;20051;-63
2021/01/25 17:24:02;;;;;;;14.07;12.82;;;;;;;-0.38;64.99;99089.63;10137790;29;20064;-63
2021/01/25 17:29:03;;;;;;;14.18;12.77;;;;;;;-0.41;65.38;99102.53;10137841;29;20044;-63
2021/01/25 17:34:05;;;;;;;15.35;13.98;;;;;;;-0.69;66.04;99094.84;10137039;29;20060;-63
2021/01/25 17:39:06;;;;;;;17.95;15.30;;;;;;;-0.62;66.01;99101.75;10137137;29;20053;-63
2021/01/25 17:44:14;;;;;;;16.67;15.27;;;;;;;-0.59;65.92;99090.53;10535221;28;20356;-62
2021/01/25 17:49:15;;;;;;;16.73;15.25;;;;;;;-0.79;66.75;99098.31;10533685;28;20489;-63
2021/01/25 17:54:17;;;;;;;17.10;15.63;;;;;;;-0.80;66.98;99092.31;10532740;28;20106;-63
2021/01/25 17:59:20;;;;;;;17.45;15.80;;;;;;;-0.67;66.70;99097.41;10531921;28;20052;-64
2021/01/25 18:04:21;;;;;;;18.55;16.90;;;;;;;-0.58;66.44;99106.00;10532396;28;20040;-62
2021/01/25 18:09:23;;;;;;;18.33;16.58;;;;;;;-0.54;66.30;99107.72;10533205;28;20040;-64
2021/01/25 18:14:24;;;;;;;19.25;17.13;;;;;;;-0.63;67.14;99115.47;10533150;28;20052;-64
2021/01/25 18:19:25;;;;;;;19.27;17.40;;;;;;;-0.69;67.73;99125.81;10533438;28;20094;-64
2021/01/25 18:24:26;;;;;;;19.60;17.80;;;;;;;-0.62;67.58;99132.72;10533181;28;20127;-64
2021/01/25 18:29:28;;;;;;;20.38;17.90;;;;;;;-0.76;67.99;99148.19;10532200;28;20127;-64
2021/01/25 18:34:30;;;;;;;19.00;17.38;;;;;;;-0.53;67.14;99139.59;10531683;28;20044;-64
2021/01/25 18:39:31;;;;;;;19.25;17.45;;;;;;;-0.60;67.61;99143.03;10532050;28;20123;-64
2021/01/25 18:44:32;;;;;;;20.25;18.20;;;;;;;-0.36;67.06;99140.38;10532291;28;20060;-63
2021/01/25 18:49:34;;;;;;;22.13;17.73;;;;;;;-0.38;66.86;99149.00;10531855;28;20135;-66
2021/01/25 18:54:35;;;;;;;20.13;18.02;;;;;;;-0.54;67.74;99149.03;10509149;28;20079;-65
2021/01/25 18:59:36;;;;;;;21.58;18.73;;;;;;;-0.38;67.35;99156.75;10503284;28;20397;-64
2021/01/25 19:04:38;;;;;;;18.88;17.15;;;;;;;-0.40;67.50;99163.63;10503011;28;20036;-65
2021/01/25 19:09:41;;;;;;;21.10;18.83;;;;;;;-0.44;67.94;99177.41;10503873;28;20041;-64
2021/01/25 19:14:42;;;;;;;21.80;19.67;;;;;;;-0.63;68.31;99177.41;10503461;28;20044;-64
2021/01/25 19:19:43;;;;;;;21.13;19.13;;;;;;;-0.32;67.30;99188.56;10503304;28;20041;-64
2021/01/25 19:24:44;;;;;;;21.83;19.75;;;;;;;-0.44;67.74;99198.06;10503278;28;20037;-66
2021/01/25 19:29:46;;;;;;;21.10;19.10;;;;;;;-0.31;67.22;99202.34;10502632;28;20462;-64
2021/01/25 19:34:48;;;;;;;22.25;20.00;;;;;;;-0.44;67.64;99209.28;10502090;28;20489;-65
2021/01/25 19:39:49;;;;;;;22.60;20.58;;;;;;;-0.31;67.45;99215.25;10502241;28;20071;-64
2021/01/25 19:44:50;;;;;;;22.95;20.55;;;;;;;-0.47;68.07;99209.25;10502689;28;20056;-65
2021/01/25 19:49:51;;;;;;;22.08;19.77;;;;;;;-0.37;67.69;99223.03;10502715;28;20041;-64
2021/01/25 19:54:53;;;;;;;23.67;19.58;;;;;;;-0.51;67.91;99229.06;10502098;28;20455;-65
2021/01/25 19:59:54;;;;;;;21.83;18.45;;;;;;;-0.44;67.78;99236.78;10501909;28;20048;-65
2021/01/25 20:04:55;;;;;;;20.83;18.83;;;;;;;-0.27;67.59;99238.53;10499988;28;20048;-65
2021/01/25 20:09:57;;;;;;;22.00;19.67;;;;;;;-0.28;67.33;99246.25;10500890;28;20040;-64
2021/01/25 20:14:59;;;;;;;24.88;19.85;;;;;;;-0.15;67.15;99253.13;10499655;28;20494;-64
2021/01/25 20:20:00;;;;;;;22.75;18.40;;;;;;;-0.34;67.60;99259.19;10500453;28;20044;-65
2021/01/25 20:25:28;;;;;;;22.40;19.13;;;;;;;-0.20;66.99;99264.34;10500720;28;20067;-65
2021/01/25 20:30:30;;;;;;;20.25;18.15;;;;;;;-0.30;68.02;99268.66;10501538;28;20118;-65
2021/01/25 20:35:35;;;;;;;22.58;19.55;;;;;;;-0.19;67.23;99268.63;10501903;28;20036;-64
2021/01/25 20:40:37;;;;;;;20.42;18.38;;;;;;;-0.20;67.31;99277.25;10498147;28;20048;-65
2021/01/25 20:45:46;;;;;;;21.30;19.15;;;;;;;-0.19;67.12;99287.56;10500446;28;20056;-64
2021/01/25 20:50:48;;;;;;;21.02;18.90;;;;;;;-0.08;66.80;99285.00;10499449;28;20040;-65
2021/01/25 20:55:50;;;;;;;22.13;19.60;;;;;;;-0.43;67.66;99288.44;10499729;28;20387;-65
2021/01/25 21:00:51;;;;;;;20.73;18.77;;;;;;;-0.28;67.32;99290.16;10499680;28;20119;-65
2021/01/25 21:05:53;;;;;;;21.35;18.98;;;;;;;-0.33;67.73;99286.72;10499794;28;20110;-64
2021/01/25 21:10:55;;;;;;;21.02;18.77;;;;;;;-0.24;67.32;99288.44;10498705;28;20094;-63
2021/01/25 21:15:57;;;;;;;26.50;18.10;;;;;;;-0.23;66.79;99296.19;10498293;28;20067;-64
2021/01/25 21:20:58;;;;;;;20.08;18.08;;;;;;;-0.39;67.72;99297.91;10498825;28;20041;-65
2021/01/25 21:25:59;;;;;;;18.52;16.90;;;;;;;-0.38;67.35;99302.22;10498815;28;20202;-65
2021/01/25 21:31:00;;;;;;;20.10;17.98;;;;;;;-0.36;67.20;99310.81;10498114;28;20143;-62
2021/01/25 21:36:02;;;;;;;20.25;17.83;;;;;;;-0.37;66.92;99310.81;10498576;28;20123;-63
2021/01/25 21:41:04;;;;;;;18.67;16.98;;;;;;;-0.31;67.02;99332.34;10497802;28;20554;-64
2021/01/25 21:46:06;;;;;;;24.15;18.10;;;;;;;-0.45;67.01;99323.72;10498422;28;20086;-64
2021/01/25 21:51:07;;;;;;;24.52;17.75;;;;;;;-0.50;67.44;99340.91;10498458;28;20378;-64
2021/01/25 21:56:08;;;;;;;24.92;18.17;;;;;;;-0.40;67.00;99334.94;10499413;28;20433;-64
2021/01/25 22:01:10;;;;;;;21.63;18.02;;;;;;;-0.39;67.01;99353.88;10498105;28;20119;-64
2021/01/25 22:06:11;;;;;;;19.23;17.27;;;;;;;-0.37;67.09;99357.28;10497774;28;20047;-65
2021/01/25 22:11:12;;;;;;;23.95;18.17;;;;;;;-0.38;66.96;99366.75;10498367;28;20507;-64
2021/01/25 22:16:13;;;;;;;21.30;19.10;;;;;;;-0.36;67.12;99364.19;10499032;28;20052;-64
2021/01/25 22:21:15;;;;;;;21.85;18.65;;;;;;;-0.51;67.95;99375.34;10497405;28;20461;-65
2021/01/25 22:26:16;;;;;;;20.25;17.73;;;;;;;-0.23;66.72;99363.34;10497640;28;20044;-65
2021/01/25 22:31:17;;;;;;;20.38;18.17;;;;;;;-0.36;67.28;99369.34;10505924;28;20401;-64
2021/01/25 22:36:19;;;;;;;20.20;18.27;;;;;;;-0.37;67.37;99363.31;10505321;28;20044;-65
2021/01/25 22:41:23;;;;;;;19.05;17.13;;;;;;;-0.35;67.07;99365.91;10504862;28;20548;-65
2021/01/25 22:46:24;;;;;;;18.95;17.33;;;;;;;-0.32;67.21;99378.81;10505419;28;20066;-64
2021/01/25 22:51:26;;;;;;;20.33;18.15;;;;;;;-0.31;67.02;99377.94;10503302;28;20040;-65
2021/01/25 22:56:27;;;;;;;21.02;18.23;;;;;;;-0.37;67.16;99378.81;10504763;28;20068;-63
2021/01/25 23:01:28;;;;;;;19.77;17.63;;;;;;;-0.44;67.29;99378.78;10505885;28;20048;-65
2021/01/25 23:06:30;;;;;;;20.13;17.95;;;;;;;-0.40;67.46;99378.81;10504828;28;20494;-64
2021/01/25 23:11:31;;;;;;;19.40;17.52;;;;;;;-0.37;67.90;99375.38;10504250;28;20041;-65